FMCH

Prince Said Ibrahim International Airport

Moroni, Comoros
METAR FMCH 140400Z 06004KT 030V100 9999 FEW022 26/19 Q1013 NOSIG
Observed Flight Rules
Nov-14 @ 04:00 UTC (an hour ago) Visual Flight Rules
Wind Visibility Clouds
60° at 4 knots 10,000+ meters
  • Few at 2,200' AGL
Temperatures Readings
Current 26°C / 79°F
Dewpoint 19°C / 66°F
Humidity 65%
Altimeter 29.91" Hg
Pressure 1013 hPa
Elevation 29
METAR FMCH 140400Z 06004KT 030V100 9999 FEW022 26/19 Q1013 NOSIG
Observed Flight Rules
Nov-14 @ 04:00 UTC
(an hour ago)
VFR
Wind Visibility
60° at 4 knots 10,000+ meters
Clouds
  • Few at 2,200' AGL
Temperature Dewpoint
26°C / 79°F 19°C / 66°F
Humidity Altimeter Pressure
65% 29.91" Hg 1013 hPa